createdAt,value
2023-10-09T00:02:12.477Z,9.65
2023-10-09T00:04:43.221Z,9.55
2023-10-09T00:07:12.375Z,9.10
2023-10-09T00:09:49.449Z,9.48
2023-10-09T00:12:25.094Z,8.93
2023-10-09T00:14:56.786Z,9.38
2023-10-09T00:17:25.235Z,7.45
2023-10-09T00:19:53.369Z,9.48
2023-10-09T00:22:31.152Z,7.28
2023-10-09T00:25:12.077Z,6.07
2023-10-09T00:27:44.240Z,7.63
2023-10-09T00:30:22.530Z,7.57
2023-10-09T00:33:08.422Z,7.90
2023-10-09T00:35:45.553Z,8.82
2023-10-09T00:38:21.758Z,10.13
2023-10-09T00:41:03.723Z,8.98
2023-10-09T00:43:31.369Z,7.72
2023-10-09T00:46:11.029Z,8.23
2023-10-09T00:48:42.170Z,7.15
2023-10-09T00:51:19.800Z,12.13
2023-10-09T00:53:54.384Z,8.60
2023-10-09T00:56:28.040Z,7.20
2023-10-09T00:59:09.455Z,10.85
2023-10-09T01:01:41.060Z,7.60
2023-10-09T01:04:19.378Z,10.20
2023-10-09T01:07:09.847Z,8.25
2023-10-09T01:09:39.117Z,9.07
2023-10-09T01:12:06.703Z,12.30
2023-10-09T01:14:37.417Z,7.65
2023-10-09T01:17:12.684Z,7.90
2023-10-09T01:19:39.617Z,9.55
2023-10-09T01:22:14.166Z,8.30
2023-10-09T01:24:41.960Z,8.93
2023-10-09T01:27:16.769Z,10.32
2023-10-09T01:29:47.495Z,9.45
2023-10-09T01:32:17.938Z,8.93
2023-10-09T01:34:47.043Z,8.23
2023-10-09T01:37:23.480Z,11.10
2023-10-09T01:39:53.046Z,8.90
2023-10-09T01:42:30.954Z,9.52
2023-10-09T01:45:27.953Z,7.93
2023-10-09T01:47:55.911Z,9.10
2023-10-09T01:50:28.057Z,11.13
2023-10-09T01:52:54.930Z,8.98
2023-10-09T01:55:36.472Z,8.63
2023-10-09T01:58:37.694Z,6.72
2023-10-09T02:01:06.629Z,9.70
2023-10-09T02:03:38.290Z,10.35
2023-10-09T02:06:06.184Z,10.48
2023-10-09T02:08:36.857Z,7.45
2023-10-09T02:11:04.537Z,8.50
2023-10-09T02:13:32.987Z,9.95
2023-10-09T02:16:13.982Z,11.68
2023-10-09T02:18:41.612Z,8.93
2023-10-09T02:21:09.886Z,8.55
2023-10-09T02:23:52.460Z,8.18
2023-10-09T02:26:20.804Z,9.32
2023-10-09T02:28:54.665Z,8.68
2023-10-09T02:31:24.194Z,8.27
2023-10-09T02:33:56.895Z,8.30
2023-10-09T02:36:24.442Z,8.57
2023-10-09T02:38:54.397Z,8.75
2023-10-09T02:41:24.443Z,8.10
2023-10-09T02:43:51.983Z,7.63
2023-10-09T02:46:21.582Z,11.43
2023-10-09T02:48:53.734Z,7.25
2023-10-09T02:51:28.041Z,9.03
2023-10-09T02:54:28.160Z,8.38
2023-10-09T02:57:07.108Z,8.15
2023-10-09T02:59:35.739Z,7.38
2023-10-09T03:02:02.653Z,7.35
2023-10-09T03:04:30.888Z,10.32
2023-10-09T03:07:02.446Z,8.10
2023-10-09T03:09:30.110Z,7.88
2023-10-09T03:12:07.209Z,11.63
2023-10-09T03:14:42.329Z,6.65
2023-10-09T03:17:12.493Z,7.93
2023-10-09T03:19:40.365Z,7.55
2023-10-09T03:22:12.328Z,7.35
2023-10-09T03:24:48.718Z,7.78
2023-10-09T03:27:17.159Z,9.25
2023-10-09T03:29:50.187Z,9.85
2023-10-09T03:32:17.501Z,7.65
2023-10-09T03:34:44.959Z,7.15
2023-10-09T03:37:38.964Z,8.98
2023-10-09T03:40:08.766Z,8.77
2023-10-09T03:42:37.772Z,9.77
2023-10-09T03:45:14.083Z,8.77
2023-10-09T03:47:49.488Z,7.80
2023-10-09T03:50:27.944Z,10.75
2023-10-09T03:52:56.599Z,11.45
2023-10-09T03:55:29.112Z,9.60
2023-10-09T03:58:00.648Z,8.20
2023-10-09T04:00:31.223Z,9.18
2023-10-09T04:02:59.765Z,12.27
2023-10-09T04:05:29.695Z,11.93
2023-10-09T04:07:59.587Z,11.30
2023-10-09T04:10:45.240Z,11.30
2023-10-09T04:13:18.121Z,7.43
2023-10-09T04:15:45.172Z,9.05
2023-10-09T04:18:17.142Z,11.70
2023-10-09T04:21:02.948Z,12.38
2023-10-09T04:23:48.493Z,12.13
2023-10-09T04:26:15.569Z,15.80
2023-10-09T04:28:43.511Z,15.27
2023-10-09T04:31:11.026Z,12.85
2023-10-09T04:33:55.428Z,12.00
2023-10-09T04:36:22.667Z,11.75
2023-10-09T04:39:00.663Z,8.45
2023-10-09T04:41:33.905Z,10.65
2023-10-09T04:44:21.014Z,8.95
2023-10-09T04:47:14.127Z,8.57
2023-10-09T04:50:07.422Z,9.40
2023-10-09T04:52:34.316Z,10.38
2023-10-09T04:55:08.296Z,10.48
2023-10-09T04:57:44.261Z,11.65
2023-10-09T05:00:29.088Z,7.35
2023-10-09T05:03:11.767Z,11.00
2023-10-09T05:05:42.952Z,6.68
2023-10-09T05:08:22.609Z,9.52
2023-10-09T05:10:59.488Z,10.60
2023-10-09T05:13:40.733Z,16.67
2023-10-09T05:16:29.910Z,7.70
2023-10-09T05:18:59.253Z,10.65
2023-10-09T05:21:36.450Z,9.95
2023-10-09T05:24:17.717Z,10.75
2023-10-09T05:26:49.698Z,8.60
2023-10-09T05:29:33.485Z,8.73
2023-10-09T05:32:13.683Z,10.85
2023-10-09T05:35:00.257Z,10.10
2023-10-09T05:37:35.801Z,10.60
2023-10-09T05:40:19.510Z,9.05
2023-10-09T05:42:58.999Z,12.60
2023-10-09T05:45:46.959Z,11.63
2023-10-09T05:48:14.208Z,11.68
2023-10-09T05:51:01.508Z,12.27
2023-10-09T05:53:46.657Z,8.35
2023-10-09T05:56:29.502Z,12.73
2023-10-09T05:59:14.992Z,11.52
2023-10-09T06:02:00.801Z,9.50
2023-10-09T06:04:46.464Z,11.57
2023-10-09T06:07:15.091Z,8.88
2023-10-09T06:09:51.673Z,12.40
2023-10-09T06:12:35.101Z,8.35
2023-10-09T06:15:32.424Z,9.32
2023-10-09T06:18:19.425Z,13.52
2023-10-09T06:21:04.755Z,7.38
2023-10-09T06:24:03.971Z,7.95
2023-10-09T06:26:34.198Z,8.60
2023-10-09T06:29:16.751Z,8.15
2023-10-09T06:32:00.017Z,10.55
2023-10-09T06:34:45.896Z,8.23
2023-10-09T06:37:24.947Z,11.02
2023-10-09T06:39:56.373Z,14.05
2023-10-09T06:42:45.296Z,8.73
2023-10-09T06:45:19.611Z,10.20
2023-10-09T06:48:01.060Z,8.63
2023-10-09T06:50:48.031Z,10.25
2023-10-09T06:53:14.960Z,9.95
2023-10-09T06:55:52.247Z,11.45
2023-10-09T06:58:26.583Z,8.13
2023-10-09T07:01:00.865Z,9.68
2023-10-09T07:03:34.014Z,7.70
2023-10-09T07:06:28.179Z,9.38
2023-10-09T07:09:06.433Z,6.93
2023-10-09T07:11:41.828Z,9.32
2023-10-09T07:14:30.069Z,6.53
2023-10-09T07:17:16.586Z,8.02
2023-10-09T07:19:45.134Z,12.15
2023-10-09T07:22:22.286Z,11.07
2023-10-09T07:24:59.845Z,7.05
2023-10-09T07:27:51.063Z,7.07
2023-10-09T07:30:32.706Z,9.25
2023-10-09T07:33:12.055Z,10.05
2023-10-09T07:35:43.534Z,9.40
2023-10-09T07:38:12.540Z,8.93
2023-10-09T07:40:58.892Z,7.30
2023-10-09T07:43:40.412Z,9.15
2023-10-09T07:46:27.783Z,8.77
2023-10-09T07:48:56.992Z,8.43
2023-10-09T07:51:32.015Z,11.48
2023-10-09T07:54:10.125Z,10.30
2023-10-09T07:56:42.773Z,11.60
2023-10-09T07:59:12.161Z,10.50
2023-10-09T08:01:53.734Z,10.80
2023-10-09T08:04:38.725Z,11.15
2023-10-09T08:08:03.366Z,11.52
2023-10-09T08:10:29.605Z,13.65
2023-10-09T08:12:59.420Z,10.13
2023-10-09T08:15:50.188Z,9.25
2023-10-09T08:18:29.263Z,8.52
2023-10-09T08:21:00.424Z,7.72
2023-10-09T08:23:47.305Z,9.93
2023-10-09T08:26:14.587Z,7.70
2023-10-09T08:28:46.633Z,7.13
2023-10-09T08:31:34.938Z,6.93
2023-10-09T08:36:51.002Z,6.78
2023-10-09T08:39:18.553Z,6.28
2023-10-09T08:41:45.507Z,5.38
2023-10-09T08:44:16.211Z,5.03
2023-10-09T08:46:45.810Z,4.88
2023-10-09T08:49:13.294Z,5.28
2023-10-09T08:51:43.292Z,6.10
2023-10-09T08:54:12.957Z,8.18
2023-10-09T08:56:50.515Z,5.90
2023-10-09T08:59:21.952Z,4.85
2023-10-09T09:01:51.132Z,3.85
2023-10-09T09:04:41.726Z,30.45
2023-10-09T09:07:34.595Z,4.28
2023-10-09T09:10:18.432Z,5.07
2023-10-09T09:12:46.179Z,4.18
2023-10-09T09:15:20.198Z,5.18
2023-10-09T09:17:50.561Z,3.42
2023-10-09T09:20:46.894Z,5.47
2023-10-09T09:23:14.781Z,4.50
2023-10-09T09:25:59.038Z,6.93
2023-10-09T09:28:40.114Z,4.53
2023-10-09T09:31:23.385Z,4.50
2023-10-09T09:33:59.616Z,2.78
2023-10-09T09:36:30.254Z,3.00
2023-10-09T09:39:02.597Z,4.05
2023-10-09T09:41:34.925Z,4.53
2023-10-09T09:44:02.210Z,10.02
2023-10-09T09:46:36.363Z,6.28
2023-10-09T09:49:34.483Z,3.63
2023-10-09T09:52:11.038Z,4.70
2023-10-09T09:54:39.536Z,4.10
2023-10-09T09:57:10.142Z,3.47
2023-10-09T10:00:01.436Z,4.47
2023-10-09T10:02:39.189Z,2.92
2023-10-09T10:05:13.004Z,14.40
2023-10-09T10:07:44.584Z,3.47
2023-10-09T10:13:02.763Z,5.93
2023-10-09T10:16:21.803Z,2.70
2023-10-09T10:19:08.011Z,3.75
2023-10-09T10:21:42.979Z,3.60
2023-10-09T10:24:31.837Z,3.08
2023-10-09T10:27:25.326Z,3.72
2023-10-09T10:30:12.093Z,4.15
2023-10-09T10:33:10.528Z,1.85
2023-10-09T10:35:46.287Z,3.03
2023-10-09T10:38:38.173Z,3.20
2023-10-09T10:41:19.220Z,3.70
2023-10-09T10:43:53.651Z,2.70
2023-10-09T10:46:38.631Z,9.90
2023-10-09T10:49:12.929Z,3.28
2023-10-09T10:51:40.141Z,3.28
2023-10-09T10:54:29.803Z,3.28
2023-10-09T10:56:59.182Z,4.32
2023-10-09T10:59:30.375Z,7.40
2023-10-09T11:01:58.206Z,4.32
2023-10-09T11:04:33.610Z,4.47
2023-10-09T11:07:13.802Z,6.05
2023-10-09T11:10:07.024Z,3.08
2023-10-09T11:12:54.412Z,5.78
2023-10-09T11:15:45.808Z,6.65
2023-10-09T11:18:21.401Z,1.75
2023-10-09T11:21:05.101Z,3.80
2023-10-09T11:23:35.552Z,2.55
2023-10-09T11:26:27.624Z,11.23
2023-10-09T11:29:33.144Z,3.95
2023-10-09T11:32:15.575Z,2.25
2023-10-09T11:34:46.399Z,1.33
2023-10-09T11:37:32.453Z,3.53
2023-10-09T11:40:01.770Z,3.55
2023-10-09T11:42:37.133Z,3.28
2023-10-09T11:45:25.837Z,2.38
2023-10-09T11:48:01.399Z,7.35
2023-10-09T11:50:52.532Z,5.40
2023-10-09T11:53:34.185Z,3.03
2023-10-09T11:56:01.815Z,5.45
2023-10-09T11:58:28.997Z,5.57
2023-10-09T12:00:59.586Z,2.78
2023-10-09T12:03:31.366Z,2.88
2023-10-09T12:06:05.485Z,2.83
2023-10-09T12:08:36.081Z,3.00
2023-10-09T12:11:09.368Z,3.33
2023-10-09T12:13:39.540Z,2.40
2023-10-09T12:16:12.904Z,4.97
2023-10-09T12:18:42.391Z,4.80
2023-10-09T12:21:16.772Z,3.75
2023-10-09T12:23:48.297Z,5.35
2023-10-09T12:26:18.357Z,3.00
2023-10-09T12:28:47.793Z,1.17
2023-10-09T12:31:16.598Z,1.08
2023-10-09T12:33:43.678Z,3.33
2023-10-09T12:36:20.987Z,9.13
2023-10-09T12:38:55.287Z,3.33
2023-10-09T12:41:29.372Z,5.63
2023-10-09T12:43:59.475Z,3.78
2023-10-09T12:46:27.084Z,4.25
2023-10-09T12:48:58.756Z,3.47
2023-10-09T12:51:31.475Z,2.97
2023-10-09T12:53:58.728Z,5.55
2023-10-09T12:56:39.558Z,8.07
2023-10-09T12:59:15.885Z,6.35
2023-10-09T13:01:44.126Z,1.73
2023-10-09T13:04:17.499Z,2.90
2023-10-09T13:06:46.542Z,7.32
2023-10-09T13:09:41.751Z,4.75
2023-10-09T13:12:19.389Z,5.63
2023-10-09T13:14:48.532Z,4.32
2023-10-09T13:17:15.589Z,9.68
2023-10-09T13:19:45.419Z,4.75
2023-10-09T13:22:14.412Z,4.10
2023-10-09T13:24:42.922Z,6.97
2023-10-09T13:27:11.079Z,2.50
2023-10-09T13:29:42.512Z,3.83
2023-10-09T13:32:16.401Z,7.18
2023-10-09T13:34:45.809Z,4.70
2023-10-09T13:37:14.530Z,6.03
2023-10-09T13:39:53.473Z,5.07
2023-10-09T13:42:24.365Z,4.30
2023-10-09T13:44:54.823Z,4.72
2023-10-09T13:47:22.063Z,6.03
2023-10-09T13:49:53.475Z,6.15
2023-10-09T13:52:23.098Z,7.82
2023-10-09T13:54:51.458Z,4.47
2023-10-09T13:57:18.558Z,3.85
2023-10-09T13:59:50.662Z,5.45
2023-10-09T14:02:19.391Z,6.93
2023-10-09T14:04:48.549Z,7.28
2023-10-09T14:07:18.008Z,6.82
2023-10-09T14:09:45.779Z,5.88
2023-10-09T14:12:15.594Z,8.23
2023-10-09T14:14:50.247Z,12.38
2023-10-09T14:17:24.656Z,9.95
2023-10-09T14:20:02.193Z,6.47
2023-10-09T14:22:30.859Z,9.00
2023-10-09T14:24:57.899Z,6.25
2023-10-09T14:27:28.324Z,9.60
2023-10-09T14:29:58.126Z,23.77
2023-10-09T14:32:35.186Z,15.50
2023-10-09T14:35:03.100Z,14.13
2023-10-09T14:37:30.720Z,8.88
2023-10-09T14:40:00.811Z,15.25
2023-10-09T14:42:29.041Z,8.55
2023-10-09T14:44:56.839Z,6.95
2023-10-09T14:47:24.225Z,6.20
2023-10-09T14:49:54.015Z,5.20
2023-10-09T14:55:07.659Z,7.40
2023-10-09T14:57:35.165Z,7.82
2023-10-09T15:00:08.800Z,6.85
2023-10-09T15:02:35.902Z,26.00
2023-10-09T15:05:05.521Z,25.15
2023-10-09T15:07:40.928Z,16.27
2023-10-09T15:10:16.551Z,10.80
2023-10-09T15:12:44.335Z,20.50
2023-10-09T15:15:15.092Z,12.60
2023-10-09T15:17:45.189Z,10.00
2023-10-09T15:20:16.673Z,13.07
2023-10-09T15:22:45.481Z,10.25
2023-10-09T15:25:16.297Z,19.50
2023-10-09T15:27:46.837Z,38.63
2023-10-09T15:30:18.235Z,19.55
2023-10-09T15:32:46.399Z,18.25
2023-10-09T15:35:16.025Z,28.08
2023-10-09T15:37:44.236Z,89.63
2023-10-09T15:40:19.856Z,62.45
2023-10-09T15:42:51.260Z,33.25
2023-10-09T15:45:22.624Z,13.02
2023-10-09T15:47:52.388Z,19.42
2023-10-09T15:50:20.741Z,11.32
2023-10-09T15:52:50.515Z,5.72
2023-10-09T15:55:21.913Z,9.20
2023-10-09T15:58:00.162Z,11.50
2023-10-09T16:00:30.046Z,16.05
2023-10-09T16:02:58.562Z,18.33
2023-10-09T16:05:27.071Z,25.00
2023-10-09T16:07:56.346Z,23.13
2023-10-09T16:10:24.380Z,20.65
2023-10-09T16:12:54.121Z,22.02
2023-10-09T16:15:21.791Z,26.17
2023-10-09T16:17:50.339Z,25.70
2023-10-09T16:20:23.171Z,34.67
2023-10-09T16:22:50.873Z,33.35
2023-10-09T16:25:21.883Z,31.42
2023-10-09T16:27:50.111Z,25.42
2023-10-09T16:30:25.207Z,21.23
2023-10-09T16:32:52.768Z,21.48
2023-10-09T16:35:23.975Z,25.13
2023-10-09T16:37:54.196Z,31.50
2023-10-09T16:40:24.474Z,21.10
2023-10-09T16:42:54.473Z,21.55
2023-10-09T16:45:21.747Z,18.10
2023-10-09T16:47:50.005Z,20.70
2023-10-09T16:50:17.264Z,13.85
2023-10-09T16:52:45.897Z,14.23
2023-10-09T16:55:13.263Z,21.23
2023-10-09T16:57:42.614Z,16.00
2023-10-09T17:00:19.630Z,19.52
2023-10-09T17:02:50.037Z,70.47
2023-10-09T17:05:29.017Z,40.95
2023-10-09T17:07:57.190Z,49.42
2023-10-09T17:10:29.226Z,28.88
2023-10-09T17:12:56.803Z,31.10
2023-10-09T17:15:30.571Z,36.47
2023-10-09T17:17:57.846Z,38.88
2023-10-09T17:20:28.278Z,36.45
2023-10-09T17:23:01.387Z,43.83
2023-10-09T17:25:32.286Z,43.80
2023-10-09T17:28:02.123Z,40.00
2023-10-09T17:30:29.328Z,56.85
2023-10-09T17:32:58.885Z,45.95
2023-10-09T17:35:28.783Z,42.58
2023-10-09T17:37:58.136Z,42.78
2023-10-09T17:40:29.111Z,37.80
2023-10-09T17:42:58.583Z,38.83
2023-10-09T17:45:27.951Z,41.92
2023-10-09T17:48:00.104Z,34.20
2023-10-09T17:52:55.655Z,43.05
2023-10-09T17:55:24.228Z,44.45
2023-10-09T17:57:51.322Z,59.90
2023-10-09T18:00:24.174Z,55.67
2023-10-09T18:05:22.283Z,51.80
2023-10-09T18:07:51.016Z,47.15
2023-10-09T18:10:18.667Z,49.53
2023-10-09T18:12:45.849Z,37.58
2023-10-09T18:15:14.862Z,33.38
2023-10-09T18:17:45.400Z,34.38
2023-10-09T18:20:13.148Z,27.52
2023-10-09T18:22:40.111Z,34.38
2023-10-09T18:25:07.503Z,34.55
2023-10-09T18:27:34.620Z,40.78
2023-10-09T18:30:01.598Z,34.42
2023-10-09T18:32:28.706Z,29.17
2023-10-09T18:34:55.988Z,34.38
2023-10-09T18:37:23.189Z,31.48
2023-10-09T18:39:50.764Z,33.30
2023-10-09T18:42:17.763Z,29.05
2023-10-09T18:44:45.222Z,37.03
2023-10-09T18:47:20.573Z,28.40
2023-10-09T18:49:51.334Z,31.45
2023-10-09T18:52:27.781Z,30.30
2023-10-09T18:54:56.967Z,31.80
2023-10-09T18:57:25.136Z,34.60
2023-10-09T18:59:53.066Z,32.30
2023-10-09T19:02:20.047Z,34.47
2023-10-09T19:04:47.041Z,33.88
2023-10-09T19:07:14.823Z,32.83
2023-10-09T19:09:41.733Z,32.40
2023-10-09T19:12:09.237Z,31.85
2023-10-09T19:14:36.158Z,30.77
2023-10-09T19:17:03.753Z,32.03
2023-10-09T19:19:30.846Z,27.35
2023-10-09T19:22:00.671Z,27.95
2023-10-09T19:24:27.617Z,31.27
2023-10-09T19:26:54.776Z,33.63
2023-10-09T19:29:21.820Z,29.85
2023-10-09T19:31:52.135Z,29.52
2023-10-09T19:34:19.429Z,31.95
2023-10-09T19:36:48.636Z,30.42
2023-10-09T19:39:19.167Z,33.90
2023-10-09T19:41:46.471Z,34.55
2023-10-09T19:44:13.504Z,34.67
2023-10-09T19:46:40.885Z,33.08
2023-10-09T19:49:10.048Z,41.50
2023-10-09T19:51:37.219Z,49.03
2023-10-09T19:54:05.056Z,42.38
2023-10-09T19:56:33.132Z,36.78
2023-10-09T19:59:00.286Z,39.72
2023-10-09T20:01:28.659Z,36.95
2023-10-09T20:03:55.794Z,37.40
2023-10-09T20:06:22.787Z,33.83
2023-10-09T20:08:49.770Z,36.90
2023-10-09T20:11:16.838Z,32.88
2023-10-09T20:13:50.992Z,26.85
2023-10-09T20:16:18.376Z,30.67
2023-10-09T20:18:45.542Z,26.67
2023-10-09T20:21:13.466Z,29.80
2023-10-09T20:23:43.800Z,26.48
2023-10-09T20:26:16.818Z,31.70
2023-10-09T20:28:49.222Z,24.77
2023-10-09T20:31:19.002Z,25.83
2023-10-09T20:33:46.743Z,23.33
2023-10-09T20:36:19.351Z,23.00
2023-10-09T20:38:50.186Z,23.15
2023-10-09T20:41:18.180Z,27.83
2023-10-09T20:43:45.574Z,24.70
2023-10-09T20:46:13.456Z,23.35
2023-10-09T20:48:46.063Z,23.50
2023-10-09T20:51:16.180Z,20.27
2023-10-09T20:53:43.339Z,22.85
2023-10-09T20:56:11.975Z,20.90
2023-10-09T20:58:44.206Z,19.98
2023-10-09T21:01:18.482Z,21.50
2023-10-09T21:03:47.823Z,17.45
2023-10-09T21:06:15.876Z,13.38
2023-10-09T21:08:44.599Z,13.18
2023-10-09T21:11:11.755Z,13.45
2023-10-09T21:13:39.973Z,15.48
2023-10-09T21:16:13.715Z,14.35
2023-10-09T21:18:47.597Z,14.38
2023-10-09T21:21:16.456Z,16.77
2023-10-09T21:23:45.160Z,14.32
2023-10-09T21:26:23.646Z,13.88
2023-10-09T21:28:53.160Z,16.27
2023-10-09T21:31:23.269Z,13.63
2023-10-09T21:33:51.279Z,15.65
2023-10-09T21:36:19.412Z,14.00
2023-10-09T21:38:46.472Z,16.88
2023-10-09T21:41:18.303Z,15.95
2023-10-09T21:43:46.588Z,15.10
2023-10-09T21:46:16.269Z,16.88
2023-10-09T21:48:44.098Z,13.27
2023-10-09T21:51:12.713Z,15.95
2023-10-09T21:53:41.621Z,16.63
2023-10-09T21:56:11.605Z,13.60
2023-10-09T21:58:38.858Z,17.27
2023-10-09T22:01:08.995Z,24.10
2023-10-09T22:03:37.027Z,18.77
2023-10-09T22:06:05.666Z,17.73
2023-10-09T22:08:34.558Z,18.73
2023-10-09T22:11:03.033Z,20.63
2023-10-09T22:13:30.160Z,19.92
2023-10-09T22:15:57.261Z,16.98
2023-10-09T22:18:25.762Z,17.50
2023-10-09T22:20:58.218Z,16.52
2023-10-09T22:23:36.512Z,15.88
2023-10-09T22:26:07.394Z,15.73
2023-10-09T22:28:34.711Z,17.00
2023-10-09T22:31:05.140Z,16.70
2023-10-09T22:33:47.056Z,17.92
2023-10-09T22:36:15.422Z,16.65
2023-10-09T22:38:43.186Z,17.00
2023-10-09T22:41:10.224Z,18.33
2023-10-09T22:43:39.994Z,18.00
2023-10-09T22:46:08.932Z,16.50
2023-10-09T22:48:42.722Z,21.05
2023-10-09T22:51:12.484Z,17.27
2023-10-09T22:53:47.866Z,18.83
2023-10-09T22:56:17.458Z,19.90
2023-10-09T22:59:07.308Z,21.65
2023-10-09T23:01:34.295Z,21.55
2023-10-09T23:04:17.132Z,24.65
2023-10-09T23:06:46.917Z,20.98
2023-10-09T23:09:31.662Z,20.92
2023-10-09T23:12:00.706Z,19.60
2023-10-09T23:14:28.450Z,20.58
2023-10-09T23:17:08.326Z,20.67
2023-10-09T23:19:45.108Z,18.60
2023-10-09T23:22:17.083Z,18.52
2023-10-09T23:25:09.680Z,19.27
2023-10-09T23:27:48.798Z,19.77
2023-10-09T23:30:25.044Z,18.75
2023-10-09T23:33:09.873Z,20.52
2023-10-09T23:36:05.356Z,20.02
2023-10-09T23:38:33.160Z,19.40
2023-10-09T23:41:22.747Z,19.65
2023-10-09T23:43:54.527Z,18.27
2023-10-09T23:46:24.971Z,20.30
2023-10-09T23:48:55.143Z,17.75
2023-10-09T23:51:22.259Z,14.93
2023-10-09T23:53:53.813Z,16.73
2023-10-09T23:56:43.792Z,14.52
2023-10-09T23:59:14.118Z,17.75
